createdAt,value
2022-08-13T00:01:00.546Z,99.90
2022-08-13T00:04:00.362Z,99.90
2022-08-13T00:06:35.706Z,99.90
2022-08-13T00:09:18.382Z,99.90
2022-08-13T00:12:09.555Z,99.90
2022-08-13T00:14:45.955Z,99.90
2022-08-13T00:17:16.915Z,99.90
2022-08-13T00:19:52.018Z,99.90
2022-08-13T00:22:28.573Z,99.90
2022-08-13T00:25:01.128Z,99.90
2022-08-13T00:27:38.352Z,99.90
2022-08-13T00:30:26.398Z,99.90
2022-08-13T00:33:14.391Z,99.90
2022-08-13T00:35:52.440Z,99.90
2022-08-13T00:38:36.347Z,99.90
2022-08-13T00:41:06.091Z,99.90
2022-08-13T00:43:35.089Z,99.90
2022-08-13T00:46:05.337Z,99.90
2022-08-13T00:48:54.190Z,99.90
2022-08-13T00:51:56.968Z,99.90
2022-08-13T00:54:18.595Z,99.90
2022-08-13T00:56:47.178Z,99.90
2022-08-13T00:59:15.713Z,99.90
2022-08-13T01:01:49.547Z,99.90
2022-08-13T01:04:26.847Z,99.90
2022-08-13T01:06:57.783Z,99.90
2022-08-13T01:10:16.406Z,99.90
2022-08-13T01:12:25.238Z,99.90
2022-08-13T01:14:58.298Z,99.90
2022-08-13T01:17:40.006Z,99.90
2022-08-13T01:20:33.220Z,99.90
2022-08-13T01:23:05.941Z,99.90
2022-08-13T01:25:52.740Z,99.90
2022-08-13T01:28:24.242Z,99.90
2022-08-13T01:30:52.481Z,99.90
2022-08-13T01:33:21.083Z,99.90
2022-08-13T01:35:52.499Z,99.90
2022-08-13T01:38:27.079Z,99.90
2022-08-13T01:40:55.628Z,99.90
2022-08-13T01:43:24.722Z,99.90
2022-08-13T01:45:53.437Z,99.90
2022-08-13T01:48:59.619Z,99.90
2022-08-13T01:51:43.871Z,99.90
2022-08-13T01:54:38.653Z,99.90
2022-08-13T01:57:08.203Z,99.90
2022-08-13T02:00:00.811Z,99.90
2022-08-13T02:02:34.434Z,99.90
2022-08-13T02:05:04.051Z,99.90
2022-08-13T02:08:01.949Z,99.90
2022-08-13T02:10:23.130Z,99.90
2022-08-13T02:12:52.631Z,99.90
2022-08-13T02:15:41.349Z,99.90
2022-08-13T02:18:08.657Z,99.90
2022-08-13T02:20:43.093Z,99.90
2022-08-13T02:23:10.517Z,99.90
2022-08-13T02:25:37.912Z,99.90
2022-08-13T02:28:13.017Z,99.90
2022-08-13T02:30:53.839Z,99.90
2022-08-13T02:33:22.320Z,99.90
2022-08-13T02:35:53.556Z,99.90
2022-08-13T02:38:29.737Z,99.90
2022-08-13T02:41:17.901Z,99.90
2022-08-13T02:43:57.605Z,99.90
2022-08-13T02:46:27.880Z,99.90
2022-08-13T02:49:00.363Z,99.90
2022-08-13T02:52:08.190Z,99.90
2022-08-13T02:54:19.770Z,99.90
2022-08-13T02:56:47.250Z,99.90
2022-08-13T03:00:01.096Z,99.90
2022-08-13T03:02:05.448Z,99.90
2022-08-13T03:04:34.429Z,99.90
2022-08-13T03:07:02.626Z,99.90
2022-08-13T03:09:31.127Z,99.90
2022-08-13T03:12:10.162Z,99.90
2022-08-13T03:14:39.898Z,99.90
2022-08-13T03:17:22.701Z,99.90
2022-08-13T03:19:56.912Z,99.90
2022-08-13T03:22:27.287Z,99.90
2022-08-13T03:24:55.121Z,99.90
2022-08-13T03:27:23.599Z,99.90
2022-08-13T03:30:02.985Z,99.90
2022-08-13T03:32:47.985Z,99.90
2022-08-13T03:35:42.778Z,99.90
2022-08-13T03:38:15.932Z,99.90
2022-08-13T03:41:01.648Z,99.90
2022-08-13T03:43:33.967Z,99.90
2022-08-13T03:46:27.318Z,99.90
2022-08-13T03:48:55.646Z,99.90
2022-08-13T03:51:35.258Z,99.90
2022-08-13T03:54:04.882Z,99.90
2022-08-13T03:56:32.423Z,99.90
2022-08-13T03:59:03.285Z,99.90
2022-08-13T04:01:31.494Z,99.90
2022-08-13T04:03:59.197Z,99.90
2022-08-13T04:06:27.538Z,99.90
2022-08-13T04:21:32.886Z,99.90
2022-08-13T04:24:05.153Z,99.90
2022-08-13T04:26:35.241Z,99.90
2022-08-13T04:29:09.536Z,99.90
2022-08-13T04:31:48.457Z,99.90
2022-08-13T04:34:39.578Z,99.90
2022-08-13T04:37:21.220Z,99.90
2022-08-13T04:40:07.442Z,99.90
2022-08-13T04:42:50.730Z,99.90
2022-08-13T04:45:23.672Z,99.90
2022-08-13T04:47:55.346Z,99.90
2022-08-13T04:50:28.075Z,99.90
2022-08-13T04:52:55.494Z,99.90
2022-08-13T04:55:24.898Z,99.90
2022-08-13T04:57:55.982Z,99.90
2022-08-13T05:00:35.731Z,99.90
2022-08-13T05:03:18.249Z,99.90
2022-08-13T05:05:49.872Z,99.90
2022-08-13T05:08:18.545Z,99.90
2022-08-13T05:10:51.342Z,99.90
2022-08-13T05:13:42.716Z,99.90
2022-08-13T05:16:14.286Z,99.90
2022-08-13T05:18:46.618Z,99.90
2022-08-13T05:21:18.521Z,99.90
2022-08-13T05:26:21.036Z,99.90
2022-08-13T05:26:53.487Z,99.90
2022-08-13T05:31:54.864Z,99.90
2022-08-13T05:34:27.023Z,99.90
2022-08-13T05:38:13.910Z,99.90
2022-08-13T05:39:47.992Z,99.90
2022-08-13T05:42:26.728Z,99.90
2022-08-13T05:44:58.046Z,99.90
2022-08-13T05:47:26.015Z,99.90
2022-08-13T05:49:58.123Z,99.90
2022-08-13T05:52:37.021Z,99.90
2022-08-13T05:56:12.016Z,99.90
2022-08-13T05:57:59.763Z,99.90
2022-08-13T06:00:46.257Z,99.90
2022-08-13T06:04:15.732Z,99.90
2022-08-13T06:06:24.572Z,99.90
2022-08-13T06:08:59.298Z,99.90
2022-08-13T06:12:07.450Z,99.90
2022-08-13T06:14:32.274Z,99.90
2022-08-13T06:17:01.136Z,99.90
2022-08-13T06:19:33.990Z,99.90
2022-08-13T06:22:04.199Z,99.90
2022-08-13T06:24:36.593Z,99.90
2022-08-13T06:27:19.465Z,99.90
2022-08-13T06:29:50.456Z,99.90
2022-08-13T06:32:36.390Z,99.90
2022-08-13T06:35:10.906Z,99.90
2022-08-13T06:37:50.229Z,99.90
2022-08-13T06:40:31.805Z,99.90
2022-08-13T06:43:02.741Z,99.90
2022-08-13T06:45:34.359Z,99.90
2022-08-13T06:48:04.831Z,99.90
2022-08-13T06:50:45.357Z,99.90
2022-08-13T06:54:24.946Z,99.90
2022-08-13T06:56:35.182Z,99.70
2022-08-13T06:58:59.101Z,99.50
2022-08-13T07:01:36.008Z,99.10
2022-08-13T07:04:29.008Z,99.70
2022-08-13T07:06:59.003Z,98.50
2022-08-13T07:09:31.052Z,98.40
2022-08-13T07:12:14.088Z,97.80
2022-08-13T07:14:47.620Z,97.20
2022-08-13T07:17:35.246Z,96.90
2022-08-13T07:20:07.697Z,96.90
2022-08-13T07:24:39.727Z,97.00
2022-08-13T07:25:57.822Z,97.00
2022-08-13T07:28:26.358Z,96.10
2022-08-13T07:31:11.478Z,96.30
2022-08-13T07:33:57.400Z,95.70
2022-08-13T07:36:31.937Z,95.20
2022-08-13T07:39:07.646Z,95.30
2022-08-13T07:42:01.292Z,94.60
2022-08-13T07:44:28.704Z,94.50
2022-08-13T07:46:59.040Z,94.10
2022-08-13T07:49:43.644Z,94.00
2022-08-13T07:52:16.796Z,94.00
2022-08-13T07:54:49.646Z,94.30
2022-08-13T07:57:27.021Z,93.20
2022-08-13T08:00:13.985Z,92.90
2022-08-13T08:02:46.987Z,92.80
2022-08-13T08:05:15.366Z,92.80
2022-08-13T08:08:06.576Z,92.50
2022-08-13T08:10:41.650Z,92.40
2022-08-13T08:13:14.567Z,92.50
2022-08-13T08:16:01.505Z,92.40
2022-08-13T08:19:24.778Z,92.40
2022-08-13T08:21:48.406Z,92.00
2022-08-13T08:24:23.178Z,92.00
2022-08-13T08:26:59.698Z,91.60
2022-08-13T08:29:27.160Z,91.70
2022-08-13T08:32:10.458Z,91.90
2022-08-13T08:34:41.857Z,91.70
2022-08-13T08:37:35.755Z,92.30
2022-08-13T08:40:30.642Z,91.80
2022-08-13T08:43:22.501Z,91.80
2022-08-13T08:46:12.785Z,91.30
2022-08-13T08:48:43.306Z,91.30
2022-08-13T08:51:19.649Z,91.00
2022-08-13T08:54:11.921Z,91.20
2022-08-13T08:56:41.628Z,90.90
2022-08-13T08:59:26.764Z,90.30
2022-08-13T09:02:00.160Z,89.70
2022-08-13T09:04:46.922Z,90.30
2022-08-13T09:07:20.256Z,89.60
2022-08-13T09:10:01.053Z,89.40
2022-08-13T09:12:29.772Z,89.10
2022-08-13T09:14:59.896Z,88.50
2022-08-13T09:17:40.214Z,88.30
2022-08-13T09:20:14.538Z,88.30
2022-08-13T09:22:53.179Z,86.40
2022-08-13T09:25:26.296Z,87.80
2022-08-13T09:28:10.920Z,86.60
2022-08-13T09:30:49.231Z,86.40
2022-08-13T09:33:49.648Z,86.60
2022-08-13T09:36:17.072Z,85.60
2022-08-13T09:38:51.492Z,84.80
2022-08-13T09:41:47.418Z,85.50
2022-08-13T09:44:18.242Z,85.40
2022-08-13T09:46:52.223Z,84.80
2022-08-13T09:49:38.072Z,84.50
2022-08-13T09:52:18.736Z,84.70
2022-08-13T09:54:50.271Z,84.70
2022-08-13T09:57:22.282Z,85.30
2022-08-13T09:59:57.508Z,85.70
2022-08-13T10:02:26.054Z,85.60
2022-08-13T10:04:54.246Z,84.80
2022-08-13T10:07:23.928Z,84.80
2022-08-13T10:09:55.807Z,85.50
2022-08-13T10:12:40.829Z,84.60
2022-08-13T10:15:22.967Z,85.20
2022-08-13T10:18:01.886Z,85.30
2022-08-13T10:20:39.513Z,85.40
2022-08-13T10:23:13.463Z,85.70
2022-08-13T10:25:50.348Z,85.00
2022-08-13T10:28:30.842Z,85.10
2022-08-13T10:31:50.030Z,84.20
2022-08-13T10:33:59.340Z,85.10
2022-08-13T10:36:34.234Z,85.70
2022-08-13T10:39:09.434Z,85.80
2022-08-13T10:41:59.921Z,85.90
2022-08-13T10:44:28.234Z,84.50
2022-08-13T10:46:55.891Z,84.90
2022-08-13T10:49:23.806Z,85.40
2022-08-13T10:52:04.222Z,84.10
2022-08-13T10:54:33.544Z,83.20
2022-08-13T10:57:06.340Z,83.50
2022-08-13T10:59:36.095Z,83.20
2022-08-13T11:02:07.940Z,82.40
2022-08-13T11:04:37.838Z,82.70
2022-08-13T11:07:06.343Z,82.60
2022-08-13T11:09:37.566Z,82.50
2022-08-13T11:12:06.796Z,82.00
2022-08-13T11:14:38.299Z,81.90
2022-08-13T11:17:35.007Z,82.20
2022-08-13T11:20:03.525Z,82.00
2022-08-13T11:22:36.455Z,81.60
2022-08-13T11:25:53.615Z,81.40
2022-08-13T11:27:52.967Z,81.50
2022-08-13T11:30:34.775Z,81.20
2022-08-13T11:33:12.807Z,81.10
2022-08-13T11:35:48.229Z,80.30
2022-08-13T11:38:20.013Z,81.40
2022-08-13T11:40:54.138Z,81.50
2022-08-13T11:43:52.485Z,81.80
2022-08-13T11:46:22.161Z,82.90
2022-08-13T11:49:08.884Z,82.20
2022-08-13T11:51:51.498Z,81.70
2022-08-13T11:54:31.193Z,81.60
2022-08-13T11:57:02.985Z,81.50
2022-08-13T11:59:34.790Z,81.60
2022-08-13T12:02:07.862Z,81.90
2022-08-13T12:04:48.799Z,81.40
2022-08-13T12:07:16.987Z,81.10
2022-08-13T12:09:48.302Z,81.00
2022-08-13T12:23:32.118Z,79.20
2022-08-13T12:26:05.229Z,79.00
2022-08-13T12:28:33.348Z,79.80
2022-08-13T12:31:06.751Z,80.40
2022-08-13T12:33:39.140Z,81.70
2022-08-13T12:36:16.869Z,81.60
2022-08-13T12:38:59.127Z,80.00
2022-08-13T12:41:38.495Z,79.50
2022-08-13T12:45:04.700Z,79.20
2022-08-13T12:47:03.051Z,81.20
2022-08-13T12:50:00.137Z,79.50
2022-08-13T12:52:44.443Z,79.40
2022-08-13T12:55:15.404Z,78.30
2022-08-13T12:58:04.821Z,79.40
2022-08-13T13:00:35.510Z,79.70
2022-08-13T13:03:07.041Z,80.70
2022-08-13T13:05:48.376Z,80.70
2022-08-13T13:08:35.506Z,82.40
2022-08-13T13:11:12.528Z,83.00
2022-08-13T13:13:55.044Z,84.10
2022-08-13T13:16:37.774Z,84.60
2022-08-13T13:19:15.683Z,85.00
2022-08-13T13:21:46.193Z,84.80
2022-08-13T13:24:18.203Z,84.50
2022-08-13T13:27:00.079Z,85.10
2022-08-13T13:29:37.695Z,84.70
2022-08-13T13:32:45.507Z,85.40
2022-08-13T13:35:07.424Z,84.60
2022-08-13T13:38:06.171Z,84.90
2022-08-13T13:40:47.350Z,85.10
2022-08-13T13:43:24.214Z,85.40
2022-08-13T13:45:59.276Z,85.00
2022-08-13T13:48:38.260Z,85.40
2022-08-13T13:51:08.821Z,86.60
2022-08-13T13:54:09.775Z,85.80
2022-08-13T13:56:26.066Z,86.20
2022-08-13T13:58:59.774Z,86.10
2022-08-13T14:01:31.080Z,86.70
2022-08-13T14:04:12.880Z,87.40
2022-08-13T14:06:42.842Z,86.90
2022-08-13T14:09:10.464Z,87.20
2022-08-13T14:11:43.982Z,86.80
2022-08-13T14:14:17.894Z,87.30
2022-08-13T14:16:48.889Z,87.40
2022-08-13T14:19:48.789Z,87.10
2022-08-13T14:22:07.433Z,87.20
2022-08-13T14:24:38.840Z,87.20
2022-08-13T14:27:18.801Z,87.70
2022-08-13T14:29:52.777Z,88.10
2022-08-13T14:32:23.763Z,88.00
2022-08-13T14:35:01.820Z,89.30
2022-08-13T14:37:34.016Z,88.50
2022-08-13T14:40:04.892Z,88.80
2022-08-13T14:43:17.405Z,88.90
2022-08-13T14:45:57.854Z,88.70
2022-08-13T14:48:30.050Z,89.60
2022-08-13T14:51:20.516Z,89.30
2022-08-13T14:53:53.388Z,89.60
2022-08-13T14:56:31.012Z,89.50
2022-08-13T14:59:00.434Z,89.90
2022-08-13T15:01:28.597Z,89.80
2022-08-13T15:04:03.345Z,90.00
2022-08-13T15:06:35.030Z,89.70
2022-08-13T15:09:10.096Z,90.00
2022-08-13T15:11:51.866Z,89.90
2022-08-13T15:14:27.685Z,89.70
2022-08-13T15:16:56.524Z,90.10
2022-08-13T15:19:26.227Z,89.90
2022-08-13T15:21:53.764Z,90.10
2022-08-13T15:24:35.880Z,90.00
2022-08-13T15:27:11.441Z,89.90
2022-08-13T15:29:44.267Z,90.10
2022-08-13T15:32:12.171Z,90.00
2022-08-13T15:34:43.787Z,90.10
2022-08-13T15:37:15.177Z,90.10
2022-08-13T15:39:47.531Z,89.90
2022-08-13T15:42:16.066Z,90.20
2022-08-13T15:44:46.361Z,90.30
2022-08-13T15:47:21.498Z,90.00
2022-08-13T15:49:54.078Z,90.10
2022-08-13T15:52:23.602Z,90.10
2022-08-13T15:54:53.461Z,90.40
2022-08-13T15:57:21.159Z,90.50
2022-08-13T15:59:49.543Z,90.60
2022-08-13T16:02:46.818Z,90.80
2022-08-13T16:05:11.002Z,90.90
2022-08-13T16:07:41.476Z,91.20
2022-08-13T16:10:20.660Z,91.20
2022-08-13T16:12:58.214Z,91.30
2022-08-13T16:15:38.197Z,91.50
2022-08-13T16:18:16.753Z,91.60
2022-08-13T16:20:46.201Z,91.70
2022-08-13T16:23:17.011Z,91.70
2022-08-13T16:25:51.684Z,91.90
2022-08-13T16:28:23.486Z,92.00
2022-08-13T16:30:53.210Z,92.00
2022-08-13T16:33:24.438Z,92.20
2022-08-13T16:35:53.448Z,92.20
2022-08-13T16:38:20.732Z,92.30
2022-08-13T16:40:57.596Z,92.50
2022-08-13T16:43:31.668Z,92.80
2022-08-13T16:46:35.441Z,93.10
2022-08-13T16:49:10.201Z,93.20
2022-08-13T16:51:43.593Z,93.30
2022-08-13T16:54:37.377Z,93.40
2022-08-13T16:56:59.574Z,93.60
2022-08-13T16:59:27.589Z,93.60
2022-08-13T17:01:56.078Z,93.30
2022-08-13T17:05:10.771Z,93.50
2022-08-13T17:07:48.901Z,93.50
2022-08-13T17:10:22.128Z,93.50
2022-08-13T17:12:52.997Z,93.60
2022-08-13T17:15:22.995Z,93.60
2022-08-13T17:17:54.683Z,93.60
2022-08-13T17:20:23.711Z,93.80
2022-08-13T17:23:02.326Z,94.00
2022-08-13T17:25:33.715Z,94.00
2022-08-13T17:28:02.213Z,94.00
2022-08-13T17:30:30.503Z,94.00
2022-08-13T17:33:01.668Z,94.10
2022-08-13T17:35:28.775Z,94.30
2022-08-13T17:38:09.755Z,94.30
2022-08-13T17:40:40.256Z,94.40
2022-08-13T17:44:09.523Z,94.40
2022-08-13T17:46:10.675Z,94.60
2022-08-13T17:49:02.578Z,94.80
2022-08-13T17:51:31.583Z,94.90
2022-08-13T17:54:00.694Z,95.20
2022-08-13T17:56:28.980Z,95.40
2022-08-13T17:58:59.822Z,95.50
2022-08-13T18:01:28.147Z,95.60
2022-08-13T18:04:08.334Z,95.70
2022-08-13T18:06:42.576Z,95.80
2022-08-13T18:09:13.252Z,96.00
2022-08-13T18:11:49.425Z,96.20
2022-08-13T18:14:34.537Z,96.40
2022-08-13T18:17:17.510Z,96.70
2022-08-13T18:19:55.251Z,96.70
2022-08-13T18:22:26.678Z,97.10
2022-08-13T18:25:02.439Z,97.20
2022-08-13T18:28:06.985Z,97.40
2022-08-13T18:30:29.081Z,97.90
2022-08-13T18:33:11.628Z,98.30
2022-08-13T18:35:55.172Z,98.60
2022-08-13T18:38:33.703Z,99.20
2022-08-13T18:41:03.976Z,99.60
2022-08-13T18:43:31.339Z,99.80
2022-08-13T18:46:01.223Z,99.90
2022-08-13T18:48:33.894Z,99.90
2022-08-13T18:51:31.997Z,99.90
2022-08-13T18:53:59.316Z,99.90
2022-08-13T18:56:26.926Z,99.90
2022-08-13T18:58:54.284Z,99.90
2022-08-13T19:01:27.175Z,99.90
2022-08-13T19:03:59.894Z,99.90
2022-08-13T19:06:35.077Z,99.90
2022-08-13T19:09:09.428Z,99.90
2022-08-13T19:11:45.283Z,99.90
2022-08-13T19:14:19.591Z,99.90
2022-08-13T19:16:57.492Z,99.90
2022-08-13T19:19:56.008Z,99.90
2022-08-13T19:22:20.103Z,99.90
2022-08-13T19:24:51.603Z,99.90
2022-08-13T19:27:20.915Z,99.90
2022-08-13T19:30:04.119Z,99.90
2022-08-13T19:32:35.646Z,99.90
2022-08-13T19:35:05.157Z,99.90
2022-08-13T19:37:41.179Z,99.90
2022-08-13T19:40:36.356Z,99.90
2022-08-13T19:43:08.458Z,99.90
2022-08-13T19:45:50.841Z,99.90
2022-08-13T19:48:38.224Z,99.90
2022-08-13T19:51:19.928Z,99.90
2022-08-13T19:53:57.471Z,99.90
2022-08-13T19:56:35.282Z,99.90
2022-08-13T19:59:15.448Z,99.90
2022-08-13T20:01:45.409Z,99.90
2022-08-13T20:04:17.157Z,99.90
2022-08-13T20:06:48.974Z,99.90
2022-08-13T20:09:19.037Z,99.90
2022-08-13T20:11:47.297Z,99.90
2022-08-13T20:14:19.946Z,99.90
2022-08-13T20:16:52.265Z,99.90
2022-08-13T20:19:59.266Z,99.90
2022-08-13T20:22:10.835Z,99.90
2022-08-13T20:25:48.033Z,99.90
2022-08-13T20:27:49.391Z,99.90
2022-08-13T20:30:35.562Z,99.90
2022-08-13T20:33:06.312Z,99.90
2022-08-13T20:35:33.474Z,99.90
2022-08-13T20:38:05.716Z,99.90
2022-08-13T20:40:33.786Z,99.90
2022-08-13T20:43:11.829Z,99.90
2022-08-13T20:45:53.529Z,99.90
2022-08-13T20:48:31.454Z,99.90
2022-08-13T20:51:05.049Z,99.90
2022-08-13T20:53:35.954Z,99.90
2022-08-13T20:56:09.281Z,99.90
2022-08-13T21:00:46.985Z,99.90
2022-08-13T21:01:24.904Z,99.90
2022-08-13T21:03:58.377Z,99.90
2022-08-13T21:06:27.974Z,99.90
2022-08-13T21:08:55.508Z,99.90
2022-08-13T21:11:23.830Z,99.90
2022-08-13T21:13:51.977Z,99.90
2022-08-13T21:16:33.942Z,99.90
2022-08-13T21:19:37.080Z,99.90
2022-08-13T21:21:56.778Z,99.90
2022-08-13T21:24:32.390Z,99.90
2022-08-13T21:27:23.964Z,99.90
2022-08-13T21:29:59.762Z,99.90
2022-08-13T21:32:35.073Z,99.90
2022-08-13T21:35:03.457Z,99.90
2022-08-13T21:37:32.585Z,99.90
2022-08-13T21:40:03.016Z,99.90
2022-08-13T21:42:38.523Z,99.90
2022-08-13T21:45:12.307Z,99.90
2022-08-13T21:47:49.000Z,99.90
2022-08-13T21:50:30.461Z,99.90
2022-08-13T21:53:27.536Z,99.90
2022-08-13T21:55:53.218Z,99.90
2022-08-13T21:58:22.170Z,99.90
2022-08-13T22:00:53.900Z,99.90
2022-08-13T22:04:00.237Z,99.90
2022-08-13T22:06:16.949Z,99.90
2022-08-13T22:08:46.398Z,99.90
2022-08-13T22:11:14.279Z,99.90
2022-08-13T22:13:42.292Z,99.90
2022-08-13T22:16:10.096Z,99.90
2022-08-13T22:18:39.416Z,99.90
2022-08-13T22:21:07.678Z,99.90
2022-08-13T22:23:35.175Z,99.90
2022-08-13T22:26:02.746Z,99.90
2022-08-13T22:28:50.561Z,99.90
2022-08-13T22:31:21.621Z,99.90
2022-08-13T22:34:02.785Z,99.90
2022-08-13T22:36:36.428Z,99.90
2022-08-13T22:39:07.823Z,99.90
2022-08-13T22:41:41.171Z,99.90
2022-08-13T22:44:11.590Z,99.90
2022-08-13T22:46:43.301Z,99.90
2022-08-13T22:49:12.657Z,99.90
2022-08-13T22:51:40.327Z,99.90
2022-08-13T22:54:12.635Z,99.90
2022-08-13T22:56:40.535Z,99.90
2022-08-13T22:59:11.045Z,99.90
2022-08-13T23:01:42.355Z,99.90
2022-08-13T23:04:22.165Z,99.90
2022-08-13T23:06:56.785Z,99.90
2022-08-13T23:09:28.023Z,99.90
2022-08-13T23:12:00.893Z,99.90
2022-08-13T23:14:31.141Z,99.90
2022-08-13T23:17:01.898Z,99.90
2022-08-13T23:19:32.561Z,99.90
2022-08-13T23:22:02.555Z,99.90
2022-08-13T23:36:37.759Z,99.90
2022-08-13T23:39:06.569Z,99.90
2022-08-13T23:41:36.954Z,99.90
2022-08-13T23:44:10.069Z,99.90
2022-08-13T23:46:45.859Z,99.90
2022-08-13T23:49:18.802Z,99.90
2022-08-13T23:51:53.177Z,99.90
2022-08-13T23:54:22.695Z,99.90
2022-08-13T23:56:53.732Z,99.90
2022-08-13T23:59:27.341Z,99.90
